sensor_id;sensor_type;location;lat;lon;timestamp;temperature;humidity
20288;DHT22;10303;51.960;8.372;2023-03-16T00:00:33;5.80;96.80
20288;DHT22;10303;51.960;8.372;2023-03-16T00:03:05;6.30;97.70
20288;DHT22;10303;51.960;8.372;2023-03-16T00:05:36;4.50;96.30
20288;DHT22;10303;51.960;8.372;2023-03-16T00:08:08;4.80;96.40
20288;DHT22;10303;51.960;8.372;2023-03-16T00:10:40;4.50;96.40
20288;DHT22;10303;51.960;8.372;2023-03-16T00:13:38;4.40;96.70
20288;DHT22;10303;51.960;8.372;2023-03-16T00:16:07;7.00;97.50
20288;DHT22;10303;51.960;8.372;2023-03-16T00:18:41;4.60;98.10
20288;DHT22;10303;51.960;8.372;2023-03-16T00:21:32;6.60;97.10
20288;DHT22;10303;51.960;8.372;2023-03-16T00:24:02;4.50;96.70
20288;DHT22;10303;51.960;8.372;2023-03-16T00:26:36;4.50;96.60
20288;DHT22;10303;51.960;8.372;2023-03-16T00:29:02;4.90;97.50
20288;DHT22;10303;51.960;8.372;2023-03-16T00:31:33;5.90;97.50
20288;DHT22;10303;51.960;8.372;2023-03-16T00:34:13;4.50;96.60
20288;DHT22;10303;51.960;8.372;2023-03-16T00:36:43;6.80;98.00
20288;DHT22;10303;51.960;8.372;2023-03-16T00:39:21;6.30;97.20
20288;DHT22;10303;51.960;8.372;2023-03-16T00:41:56;5.80;97.80
20288;DHT22;10303;51.960;8.372;2023-03-16T00:44:24;4.50;97.80
20288;DHT22;10303;51.960;8.372;2023-03-16T00:46:58;4.50;97.30
20288;DHT22;10303;51.960;8.372;2023-03-16T00:49:31;7.30;97.90
20288;DHT22;10303;51.960;8.372;2023-03-16T00:52:03;4.50;97.00
20288;DHT22;10303;51.960;8.372;2023-03-16T00:54:46;4.40;97.20
20288;DHT22;10303;51.960;8.372;2023-03-16T00:57:16;4.50;97.40
20288;DHT22;10303;51.960;8.372;2023-03-16T00:59:47;6.80;98.20
20288;DHT22;10303;51.960;8.372;2023-03-16T01:02:16;6.50;98.00
20288;DHT22;10303;51.960;8.372;2023-03-16T01:04:57;7.40;98.00
20288;DHT22;10303;51.960;8.372;2023-03-16T01:07:30;4.50;97.30
20288;DHT22;10303;51.960;8.372;2023-03-16T01:10:14;7.00;98.50
20288;DHT22;10303;51.960;8.372;2023-03-16T01:12:45;5.80;97.80
20288;DHT22;10303;51.960;8.372;2023-03-16T01:15:15;4.60;97.70
20288;DHT22;10303;51.960;8.372;2023-03-16T01:17:47;5.30;98.30
20288;DHT22;10303;51.960;8.372;2023-03-16T01:20:17;6.20;98.10
20288;DHT22;10303;51.960;8.372;2023-03-16T01:23:01;4.50;97.50
20288;DHT22;10303;51.960;8.372;2023-03-16T01:25:38;7.10;98.90
20288;DHT22;10303;51.960;8.372;2023-03-16T01:28:08;6.40;99.30
20288;DHT22;10303;51.960;8.372;2023-03-16T01:30:35;3.80;98.00
20288;DHT22;10303;51.960;8.372;2023-03-16T01:33:03;5.80;98.00
20288;DHT22;10303;51.960;8.372;2023-03-16T01:35:36;7.20;99.00
20288;DHT22;10303;51.960;8.372;2023-03-16T01:38:03;4.40;97.60
20288;DHT22;10303;51.960;8.372;2023-03-16T01:40:35;6.70;98.60
20288;DHT22;10303;51.960;8.372;2023-03-16T01:43:05;5.40;99.40
20288;DHT22;10303;51.960;8.372;2023-03-16T01:55:08;4.50;98.10
20288;DHT22;10303;51.960;8.372;2023-03-16T01:57:44;4.40;98.70
20288;DHT22;10303;51.960;8.372;2023-03-16T02:00:22;3.90;99.90
20288;DHT22;10303;51.960;8.372;2023-03-16T02:03:09;7.00;99.90
20288;DHT22;10303;51.960;8.372;2023-03-16T02:05:52;3.60;99.00
20288;DHT22;10303;51.960;8.372;2023-03-16T02:08:30;4.00;99.20
20288;DHT22;10303;51.960;8.372;2023-03-16T02:11:08;6.90;99.80
20288;DHT22;10303;51.960;8.372;2023-03-16T02:13:44;4.10;99.00
20288;DHT22;10303;51.960;8.372;2023-03-16T02:16:29;4.30;99.00
20288;DHT22;10303;51.960;8.372;2023-03-16T02:19:02;5.50;99.50
20288;DHT22;10303;51.960;8.372;2023-03-16T02:22:00;4.10;99.30
20288;DHT22;10303;51.960;8.372;2023-03-16T02:24:32;4.10;99.10
20288;DHT22;10303;51.960;8.372;2023-03-16T02:27:04;5.30;99.90
20288;DHT22;10303;51.960;8.372;2023-03-16T02:30:11;4.10;99.10
20288;DHT22;10303;51.960;8.372;2023-03-16T02:33:25;4.30;99.60
20288;DHT22;10303;51.960;8.372;2023-03-16T02:35:54;4.50;99.10
20288;DHT22;10303;51.960;8.372;2023-03-16T02:38:24;6.70;99.80
20288;DHT22;10303;51.960;8.372;2023-03-16T02:44:10;4.10;99.20
20288;DHT22;10303;51.960;8.372;2023-03-16T02:46:43;4.20;99.40
20288;DHT22;10303;51.960;8.372;2023-03-16T02:49:26;4.30;99.40
20288;DHT22;10303;51.960;8.372;2023-03-16T02:52:04;4.40;99.30
20288;DHT22;10303;51.960;8.372;2023-03-16T02:54:31;4.20;99.30
20288;DHT22;10303;51.960;8.372;2023-03-16T02:56:57;7.50;99.90
20288;DHT22;10303;51.960;8.372;2023-03-16T02:59:25;5.60;99.90
20288;DHT22;10303;51.960;8.372;2023-03-16T03:01:51;4.80;99.70
20288;DHT22;10303;51.960;8.372;2023-03-16T03:04:18;6.00;99.90
20288;DHT22;10303;51.960;8.372;2023-03-16T03:06:53;6.50;99.90
20288;DHT22;10303;51.960;8.372;2023-03-16T03:09:21;6.40;99.90
20288;DHT22;10303;51.960;8.372;2023-03-16T03:11:53;4.30;99.20
20288;DHT22;10303;51.960;8.372;2023-03-16T03:14:21;5.20;99.70
20288;DHT22;10303;51.960;8.372;2023-03-16T03:16:51;6.20;99.90
20288;DHT22;10303;51.960;8.372;2023-03-16T03:19:18;3.10;99.20
20288;DHT22;10303;51.960;8.372;2023-03-16T03:21:44;4.40;99.90
20288;DHT22;10303;51.960;8.372;2023-03-16T03:27:59;4.30;99.30
20288;DHT22;10303;51.960;8.372;2023-03-16T03:30:47;5.30;99.80
20288;DHT22;10303;51.960;8.372;2023-03-16T03:33:46;4.30;99.20
20288;DHT22;10303;51.960;8.372;2023-03-16T03:36:14;4.30;99.80
20288;DHT22;10303;51.960;8.372;2023-03-16T03:38:43;7.20;99.90
20288;DHT22;10303;51.960;8.372;2023-03-16T03:41:26;4.30;99.70
20288;DHT22;10303;51.960;8.372;2023-03-16T03:43:58;6.50;99.90
20288;DHT22;10303;51.960;8.372;2023-03-16T03:46:29;4.50;99.40
20288;DHT22;10303;51.960;8.372;2023-03-16T03:49:04;4.60;99.40
20288;DHT22;10303;51.960;8.372;2023-03-16T03:52:01;4.30;99.30
20288;DHT22;10303;51.960;8.372;2023-03-16T03:54:41;4.30;99.30
20288;DHT22;10303;51.960;8.372;2023-03-16T03:57:20;4.30;99.40
20288;DHT22;10303;51.960;8.372;2023-03-16T03:59:50;4.30;99.30
20288;DHT22;10303;51.960;8.372;2023-03-16T04:02:40;7.00;99.90
20288;DHT22;10303;51.960;8.372;2023-03-16T04:05:21;4.30;99.40
20288;DHT22;10303;51.960;8.372;2023-03-16T04:08:02;4.30;99.90
20288;DHT22;10303;51.960;8.372;2023-03-16T04:10:35;4.30;99.70
20288;DHT22;10303;51.960;8.372;2023-03-16T04:13:06;4.30;99.60
20288;DHT22;10303;51.960;8.372;2023-03-16T04:15:33;6.80;99.90
20288;DHT22;10303;51.960;8.372;2023-03-16T04:18:12;7.30;99.90
20288;DHT22;10303;51.960;8.372;2023-03-16T04:20:42;4.30;99.90
20288;DHT22;10303;51.960;8.372;2023-03-16T04:23:15;7.00;99.90
20288;DHT22;10303;51.960;8.372;2023-03-16T04:25:46;4.50;99.90
20288;DHT22;10303;51.960;8.372;2023-03-16T04:31:16;4.40;99.90
20288;DHT22;10303;51.960;8.372;2023-03-16T04:33:45;4.40;99.90
20288;DHT22;10303;51.960;8.372;2023-03-16T04:36:28;2.00;99.90
20288;DHT22;10303;51.960;8.372;2023-03-16T04:38:55;4.40;99.90
20288;DHT22;10303;51.960;8.372;2023-03-16T04:41:32;6.30;99.90
20288;DHT22;10303;51.960;8.372;2023-03-16T04:44:07;7.00;99.90
20288;DHT22;10303;51.960;8.372;2023-03-16T04:46:36;4.50;99.90
20288;DHT22;10303;51.960;8.372;2023-03-16T04:49:13;6.90;99.90
20288;DHT22;10303;51.960;8.372;2023-03-16T04:51:45;7.10;99.90
20288;DHT22;10303;51.960;8.372;2023-03-16T04:54:21;4.50;99.90
20288;DHT22;10303;51.960;8.372;2023-03-16T04:56:55;4.60;99.90
20288;DHT22;10303;51.960;8.372;2023-03-16T04:59:50;6.60;99.90
20288;DHT22;10303;51.960;8.372;2023-03-16T05:02:42;4.60;99.90
20288;DHT22;10303;51.960;8.372;2023-03-16T05:05:24;4.60;99.90
20288;DHT22;10303;51.960;8.372;2023-03-16T05:07:58;4.70;99.90
20288;DHT22;10303;51.960;8.372;2023-03-16T05:14:05;4.90;99.90
20288;DHT22;10303;51.960;8.372;2023-03-16T05:16:58;7.10;99.90
20288;DHT22;10303;51.960;8.372;2023-03-16T05:19:45;6.70;99.90
20288;DHT22;10303;51.960;8.372;2023-03-16T05:22:43;5.00;99.90
20288;DHT22;10303;51.960;8.372;2023-03-16T05:25:47;7.00;99.90
20288;DHT22;10303;51.960;8.372;2023-03-16T05:37:00;4.90;99.90
20288;DHT22;10303;51.960;8.372;2023-03-16T05:39:36;2.50;99.90
20288;DHT22;10303;51.960;8.372;2023-03-16T05:42:10;5.40;99.90
20288;DHT22;10303;51.960;8.372;2023-03-16T05:45:02;5.40;99.90
20288;DHT22;10303;51.960;8.372;2023-03-16T05:48:13;5.10;99.90
20288;DHT22;10303;51.960;8.372;2023-03-16T05:54:22;5.00;99.90
20288;DHT22;10303;51.960;8.372;2023-03-16T05:57:08;4.90;99.90
20288;DHT22;10303;51.960;8.372;2023-03-16T05:59:40;7.60;99.90
20288;DHT22;10303;51.960;8.372;2023-03-16T06:02:48;5.00;99.90
20288;DHT22;10303;51.960;8.372;2023-03-16T06:06:18;5.10;99.90
20288;DHT22;10303;51.960;8.372;2023-03-16T06:10:00;5.20;99.90
20288;DHT22;10303;51.960;8.372;2023-03-16T06:12:45;5.20;99.90
20288;DHT22;10303;51.960;8.372;2023-03-16T06:15:39;7.60;99.90
20288;DHT22;10303;51.960;8.372;2023-03-16T06:18:40;5.20;99.90
20288;DHT22;10303;51.960;8.372;2023-03-16T06:21:46;5.30;99.90
20288;DHT22;10303;51.960;8.372;2023-03-16T06:24:36;7.20;99.90
20288;DHT22;10303;51.960;8.372;2023-03-16T06:27:43;5.40;99.90
20288;DHT22;10303;51.960;8.372;2023-03-16T06:30:48;5.50;99.90
20288;DHT22;10303;51.960;8.372;2023-03-16T06:33:41;5.50;99.90
20288;DHT22;10303;51.960;8.372;2023-03-16T06:37:45;5.60;99.90
20288;DHT22;10303;51.960;8.372;2023-03-16T07:07:03;6.00;99.90
20288;DHT22;10303;51.960;8.372;2023-03-16T08:48:08;8.50;99.90
20288;DHT22;10303;51.960;8.372;2023-03-16T08:51:35;8.80;99.90
20288;DHT22;10303;51.960;8.372;2023-03-16T08:57:42;8.90;99.90
20288;DHT22;10303;51.960;8.372;2023-03-16T09:00:25;9.00;99.90
20288;DHT22;10303;51.960;8.372;2023-03-16T09:03:05;8.40;99.90
20288;DHT22;10303;51.960;8.372;2023-03-16T09:05:39;9.20;99.90
20288;DHT22;10303;51.960;8.372;2023-03-16T09:08:09;9.60;99.90
20288;DHT22;10303;51.960;8.372;2023-03-16T09:11:06;9.40;99.90
20288;DHT22;10303;51.960;8.372;2023-03-16T09:13:48;8.70;99.90
20288;DHT22;10303;51.960;8.372;2023-03-16T09:16:22;10.00;99.90
20288;DHT22;10303;51.960;8.372;2023-03-16T09:18:59;10.00;99.90
20288;DHT22;10303;51.960;8.372;2023-03-16T09:21:32;10.20;99.90
20288;DHT22;10303;51.960;8.372;2023-03-16T09:24:07;9.20;99.90
20288;DHT22;10303;51.960;8.372;2023-03-16T09:26:38;10.50;99.90
20288;DHT22;10303;51.960;8.372;2023-03-16T09:29:28;10.80;99.90
20288;DHT22;10303;51.960;8.372;2023-03-16T09:32:27;10.80;99.90
20288;DHT22;10303;51.960;8.372;2023-03-16T09:35:31;10.90;99.90
20288;DHT22;10303;51.960;8.372;2023-03-16T09:38:08;10.40;99.90
20288;DHT22;10303;51.960;8.372;2023-03-16T09:40:42;11.40;99.90
20288;DHT22;10303;51.960;8.372;2023-03-16T09:43:46;11.70;99.90
20288;DHT22;10303;51.960;8.372;2023-03-16T09:47:06;11.90;99.80
20288;DHT22;10303;51.960;8.372;2023-03-16T09:49:48;12.20;99.50
20288;DHT22;10303;51.960;8.372;2023-03-16T09:53:31;12.50;96.40
20288;DHT22;10303;51.960;8.372;2023-03-16T09:56:17;12.40;96.80
20288;DHT22;10303;51.960;8.372;2023-03-16T09:58:58;12.60;96.00
20288;DHT22;10303;51.960;8.372;2023-03-16T10:01:54;12.60;96.70
20288;DHT22;10303;51.960;8.372;2023-03-16T10:11:17;13.40;93.80
20288;DHT22;10303;51.960;8.372;2023-03-16T10:14:45;12.80;92.70
20288;DHT22;10303;51.960;8.372;2023-03-16T10:17:31;13.60;92.40
20288;DHT22;10303;51.960;8.372;2023-03-16T10:20:17;13.90;93.50
20288;DHT22;10303;51.960;8.372;2023-03-16T10:22:47;14.00;92.60
20288;DHT22;10303;51.960;8.372;2023-03-16T10:28:35;14.20;92.50
20288;DHT22;10303;51.960;8.372;2023-03-16T10:31:03;14.20;93.00
20288;DHT22;10303;51.960;8.372;2023-03-16T10:33:32;14.30;91.20
20288;DHT22;10303;51.960;8.372;2023-03-16T10:36:12;14.30;92.70
20288;DHT22;10303;51.960;8.372;2023-03-16T10:39:10;14.40;91.80
20288;DHT22;10303;51.960;8.372;2023-03-16T10:41:44;14.60;90.70
20288;DHT22;10303;51.960;8.372;2023-03-16T10:44:24;14.60;90.90
20288;DHT22;10303;51.960;8.372;2023-03-16T10:47:03;14.60;89.10
20288;DHT22;10303;51.960;8.372;2023-03-16T10:49:42;14.60;88.30
20288;DHT22;10303;51.960;8.372;2023-03-16T10:52:17;14.60;88.60
20288;DHT22;10303;51.960;8.372;2023-03-16T10:55:28;14.70;87.70
20288;DHT22;10303;51.960;8.372;2023-03-16T10:57:57;14.70;88.50
20288;DHT22;10303;51.960;8.372;2023-03-16T11:00:33;14.90;90.70
20288;DHT22;10303;51.960;8.372;2023-03-16T11:03:58;13.90;88.40
20288;DHT22;10303;51.960;8.372;2023-03-16T11:06:30;14.90;87.70
20288;DHT22;10303;51.960;8.372;2023-03-16T11:09:09;15.00;86.90
20288;DHT22;10303;51.960;8.372;2023-03-16T11:11:38;14.90;85.70
20288;DHT22;10303;51.960;8.372;2023-03-16T11:14:12;14.90;85.00
20288;DHT22;10303;51.960;8.372;2023-03-16T11:24:51;14.70;83.40
20288;DHT22;10303;51.960;8.372;2023-03-16T11:27:24;14.60;81.00
20288;DHT22;10303;51.960;8.372;2023-03-16T11:30:04;14.60;84.30
20288;DHT22;10303;51.960;8.372;2023-03-16T11:32:39;14.50;82.80
20288;DHT22;10303;51.960;8.372;2023-03-16T11:35:16;14.50;82.60
20288;DHT22;10303;51.960;8.372;2023-03-16T11:40:47;14.30;80.20
20288;DHT22;10303;51.960;8.372;2023-03-16T11:43:52;14.20;81.10
20288;DHT22;10303;51.960;8.372;2023-03-16T11:46:26;14.30;81.50
20288;DHT22;10303;51.960;8.372;2023-03-16T11:52:41;14.20;80.20
20288;DHT22;10303;51.960;8.372;2023-03-16T11:55:18;14.20;81.10
20288;DHT22;10303;51.960;8.372;2023-03-16T11:58:02;14.20;82.00
20288;DHT22;10303;51.960;8.372;2023-03-16T12:09:15;14.30;86.10
20288;DHT22;10303;51.960;8.372;2023-03-16T12:12:27;14.30;84.50
20288;DHT22;10303;51.960;8.372;2023-03-16T12:15:28;14.30;82.80
20288;DHT22;10303;51.960;8.372;2023-03-16T12:18:22;14.30;80.00
20288;DHT22;10303;51.960;8.372;2023-03-16T12:21:00;14.30;79.50
20288;DHT22;10303;51.960;8.372;2023-03-16T12:23:35;14.20;78.60
20288;DHT22;10303;51.960;8.372;2023-03-16T12:26:26;14.20;77.40
20288;DHT22;10303;51.960;8.372;2023-03-16T12:28:56;14.20;78.90
20288;DHT22;10303;51.960;8.372;2023-03-16T12:31:46;14.30;77.70
20288;DHT22;10303;51.960;8.372;2023-03-16T12:34:46;14.20;76.70
20288;DHT22;10303;51.960;8.372;2023-03-16T12:43:50;14.10;77.70
20288;DHT22;10303;51.960;8.372;2023-03-16T12:49:16;14.20;81.70
20288;DHT22;10303;51.960;8.372;2023-03-16T12:51:58;14.20;81.70
20288;DHT22;10303;51.960;8.372;2023-03-16T12:54:33;14.20;82.30
20288;DHT22;10303;51.960;8.372;2023-03-16T12:57:06;14.20;83.40
20288;DHT22;10303;51.960;8.372;2023-03-16T12:59:44;14.40;82.70
20288;DHT22;10303;51.960;8.372;2023-03-16T13:02:29;14.20;81.00
20288;DHT22;10303;51.960;8.372;2023-03-16T13:05:09;14.20;81.20
20288;DHT22;10303;51.960;8.372;2023-03-16T13:07:53;14.40;82.40
20288;DHT22;10303;51.960;8.372;2023-03-16T13:10:30;12.60;81.50
20288;DHT22;10303;51.960;8.372;2023-03-16T13:13:11;14.20;81.90
20288;DHT22;10303;51.960;8.372;2023-03-16T13:15:45;14.20;82.30
20288;DHT22;10303;51.960;8.372;2023-03-16T13:18:34;14.30;83.20
20288;DHT22;10303;51.960;8.372;2023-03-16T13:21:16;14.20;81.70
20288;DHT22;10303;51.960;8.372;2023-03-16T13:24:36;13.90;80.90
20288;DHT22;10303;51.960;8.372;2023-03-16T13:27:20;13.80;81.20
20288;DHT22;10303;51.960;8.372;2023-03-16T13:29:59;14.20;80.20
20288;DHT22;10303;51.960;8.372;2023-03-16T13:32:41;14.20;81.60
20288;DHT22;10303;51.960;8.372;2023-03-16T13:35:13;15.10;82.90
20288;DHT22;10303;51.960;8.372;2023-03-16T13:37:50;14.20;83.00
20288;DHT22;10303;51.960;8.372;2023-03-16T13:41:00;14.30;82.90
20288;DHT22;10303;51.960;8.372;2023-03-16T13:43:41;14.30;81.40
20288;DHT22;10303;51.960;8.372;2023-03-16T13:46:20;14.60;81.80
20288;DHT22;10303;51.960;8.372;2023-03-16T13:49:02;14.40;81.20
20288;DHT22;10303;51.960;8.372;2023-03-16T13:51:36;14.50;82.00
20288;DHT22;10303;51.960;8.372;2023-03-16T13:54:32;14.40;82.10
20288;DHT22;10303;51.960;8.372;2023-03-16T13:57:18;14.50;81.00
20288;DHT22;10303;51.960;8.372;2023-03-16T13:59:50;14.50;80.50
20288;DHT22;10303;51.960;8.372;2023-03-16T14:02:29;14.50;81.20
20288;DHT22;10303;51.960;8.372;2023-03-16T14:05:33;14.50;81.40
20288;DHT22;10303;51.960;8.372;2023-03-16T14:08:17;14.50;80.00
20288;DHT22;10303;51.960;8.372;2023-03-16T14:10:57;14.40;78.70
20288;DHT22;10303;51.960;8.372;2023-03-16T14:13:54;14.40;79.80
20288;DHT22;10303;51.960;8.372;2023-03-16T14:16:51;14.30;76.90
20288;DHT22;10303;51.960;8.372;2023-03-16T14:19:27;14.30;78.60
20288;DHT22;10303;51.960;8.372;2023-03-16T14:22:01;14.40;77.30
20288;DHT22;10303;51.960;8.372;2023-03-16T14:24:52;14.40;78.10
20288;DHT22;10303;51.960;8.372;2023-03-16T14:33:25;14.10;76.70
20288;DHT22;10303;51.960;8.372;2023-03-16T14:35:58;14.10;77.40
20288;DHT22;10303;51.960;8.372;2023-03-16T14:38:33;14.30;78.00
20288;DHT22;10303;51.960;8.372;2023-03-16T14:41:30;14.10;78.30
20288;DHT22;10303;51.960;8.372;2023-03-16T14:43:56;14.00;76.90
20288;DHT22;10303;51.960;8.372;2023-03-16T14:46:29;14.00;77.80
20288;DHT22;10303;51.960;8.372;2023-03-16T14:49:26;14.00;77.20
20288;DHT22;10303;51.960;8.372;2023-03-16T14:53:13;14.00;77.20
20288;DHT22;10303;51.960;8.372;2023-03-16T14:59:35;14.10;81.10
20288;DHT22;10303;51.960;8.372;2023-03-16T15:02:01;14.10;80.30
20288;DHT22;10303;51.960;8.372;2023-03-16T15:04:33;14.10;80.00
20288;DHT22;10303;51.960;8.372;2023-03-16T15:07:51;14.10;79.10
20288;DHT22;10303;51.960;8.372;2023-03-16T15:18:47;14.00;76.90
20288;DHT22;10303;51.960;8.372;2023-03-16T15:21:17;14.10;77.50
20288;DHT22;10303;51.960;8.372;2023-03-16T15:23:46;14.10;78.20
20288;DHT22;10303;51.960;8.372;2023-03-16T15:26:14;14.10;76.40
20288;DHT22;10303;51.960;8.372;2023-03-16T15:28:43;13.90;76.50
20288;DHT22;10303;51.960;8.372;2023-03-16T15:31:11;13.80;76.70
20288;DHT22;10303;51.960;8.372;2023-03-16T15:33:39;13.80;76.00
20288;DHT22;10303;51.960;8.372;2023-03-16T15:36:13;13.80;76.20
20288;DHT22;10303;51.960;8.372;2023-03-16T15:38:45;13.80;76.90
20288;DHT22;10303;51.960;8.372;2023-03-16T15:41:13;13.80;76.80
20288;DHT22;10303;51.960;8.372;2023-03-16T15:43:39;14.20;77.00
20288;DHT22;10303;51.960;8.372;2023-03-16T15:46:06;13.80;77.20
20288;DHT22;10303;51.960;8.372;2023-03-16T15:48:32;13.90;78.20
20288;DHT22;10303;51.960;8.372;2023-03-16T15:51:07;13.90;78.20
20288;DHT22;10303;51.960;8.372;2023-03-16T15:53:42;14.00;79.50
20288;DHT22;10303;51.960;8.372;2023-03-16T15:56:14;14.10;79.10
20288;DHT22;10303;51.960;8.372;2023-03-16T15:58:43;14.00;77.80
20288;DHT22;10303;51.960;8.372;2023-03-16T16:01:29;14.20;77.90
20288;DHT22;10303;51.960;8.372;2023-03-16T16:04:17;14.20;77.10
20288;DHT22;10303;51.960;8.372;2023-03-16T16:06:47;14.10;78.30
20288;DHT22;10303;51.960;8.372;2023-03-16T16:09:14;14.10;78.40
20288;DHT22;10303;51.960;8.372;2023-03-16T16:11:44;14.10;77.90
20288;DHT22;10303;51.960;8.372;2023-03-16T16:14:16;14.20;77.70
20288;DHT22;10303;51.960;8.372;2023-03-16T16:16:45;14.20;78.20
20288;DHT22;10303;51.960;8.372;2023-03-16T16:19:15;14.30;78.70
20288;DHT22;10303;51.960;8.372;2023-03-16T16:21:43;14.10;77.80
20288;DHT22;10303;51.960;8.372;2023-03-16T16:24:10;14.00;78.60
20288;DHT22;10303;51.960;8.372;2023-03-16T16:26:43;14.00;78.70
20288;DHT22;10303;51.960;8.372;2023-03-16T16:29:29;13.90;77.00
20288;DHT22;10303;51.960;8.372;2023-03-16T16:32:30;13.80;77.60
20288;DHT22;10303;51.960;8.372;2023-03-16T16:39:14;13.80;78.20
20288;DHT22;10303;51.960;8.372;2023-03-16T16:42:15;13.80;79.10
20288;DHT22;10303;51.960;8.372;2023-03-16T16:45:02;13.60;79.00
20288;DHT22;10303;51.960;8.372;2023-03-16T16:49:03;13.60;79.60
20288;DHT22;10303;51.960;8.372;2023-03-16T16:52:17;13.50;79.90
20288;DHT22;10303;51.960;8.372;2023-03-16T16:55:33;13.50;80.30
20288;DHT22;10303;51.960;8.372;2023-03-16T16:58:00;13.40;80.60
20288;DHT22;10303;51.960;8.372;2023-03-16T17:00:33;13.30;81.10
20288;DHT22;10303;51.960;8.372;2023-03-16T17:10:01;13.20;81.80
20288;DHT22;10303;51.960;8.372;2023-03-16T17:12:34;13.20;81.70
20288;DHT22;10303;51.960;8.372;2023-03-16T17:22:38;13.10;82.80
20288;DHT22;10303;51.960;8.372;2023-03-16T17:35:14;13.00;83.70
20288;DHT22;10303;51.960;8.372;2023-03-16T17:37:45;12.90;83.30
20288;DHT22;10303;51.960;8.372;2023-03-16T17:40:17;12.90;83.80
20288;DHT22;10303;51.960;8.372;2023-03-16T17:42:48;12.90;84.10
20288;DHT22;10303;51.960;8.372;2023-03-16T17:45:25;12.80;84.30
20288;DHT22;10303;51.960;8.372;2023-03-16T17:47:53;12.70;84.10
20288;DHT22;10303;51.960;8.372;2023-03-16T17:50:27;12.70;84.30
20288;DHT22;10303;51.960;8.372;2023-03-16T17:52:55;12.70;85.00
20288;DHT22;10303;51.960;8.372;2023-03-16T17:55:26;12.60;85.30
20288;DHT22;10303;51.960;8.372;2023-03-16T17:57:55;12.70;86.00
20288;DHT22;10303;51.960;8.372;2023-03-16T18:03:10;13.00;86.30
20288;DHT22;10303;51.960;8.372;2023-03-16T18:05:43;12.40;85.70
20288;DHT22;10303;51.960;8.372;2023-03-16T18:08:20;12.30;86.20
20288;DHT22;10303;51.960;8.372;2023-03-16T18:10:59;12.70;86.70
20288;DHT22;10303;51.960;8.372;2023-03-16T18:13:37;12.30;86.70
20288;DHT22;10303;51.960;8.372;2023-03-16T18:16:07;12.20;86.60
20288;DHT22;10303;51.960;8.372;2023-03-16T18:18:39;12.60;88.20
20288;DHT22;10303;51.960;8.372;2023-03-16T18:21:20;12.30;88.20
20288;DHT22;10303;51.960;8.372;2023-03-16T18:23:50;11.90;88.40
20288;DHT22;10303;51.960;8.372;2023-03-16T18:26:18;12.10;88.20
20288;DHT22;10303;51.960;8.372;2023-03-16T18:28:45;11.90;88.30
20288;DHT22;10303;51.960;8.372;2023-03-16T18:31:25;12.20;89.80
20288;DHT22;10303;51.960;8.372;2023-03-16T18:33:57;11.90;88.80
20288;DHT22;10303;51.960;8.372;2023-03-16T18:36:29;11.80;88.30
20288;DHT22;10303;51.960;8.372;2023-03-16T18:38:59;11.80;88.70
20288;DHT22;10303;51.960;8.372;2023-03-16T18:41:31;11.80;88.80
20288;DHT22;10303;51.960;8.372;2023-03-16T18:44:01;12.70;90.00
20288;DHT22;10303;51.960;8.372;2023-03-16T18:46:41;11.70;89.90
20288;DHT22;10303;51.960;8.372;2023-03-16T18:51:42;11.60;90.30
20288;DHT22;10303;51.960;8.372;2023-03-16T18:54:32;11.60;90.60
20288;DHT22;10303;51.960;8.372;2023-03-16T18:57:00;11.60;90.60
20288;DHT22;10303;51.960;8.372;2023-03-16T18:59:29;11.60;90.50
20288;DHT22;10303;51.960;8.372;2023-03-16T19:01:56;11.50;90.40
20288;DHT22;10303;51.960;8.372;2023-03-16T19:04:29;11.70;90.60
20288;DHT22;10303;51.960;8.372;2023-03-16T19:06:58;11.50;91.10
20288;DHT22;10303;51.960;8.372;2023-03-16T19:09:30;11.50;91.00
20288;DHT22;10303;51.960;8.372;2023-03-16T19:11:57;11.40;91.00
20288;DHT22;10303;51.960;8.372;2023-03-16T19:14:30;11.50;91.20
20288;DHT22;10303;51.960;8.372;2023-03-16T19:17:20;11.50;91.20
20288;DHT22;10303;51.960;8.372;2023-03-16T19:27:22;11.40;91.80
20288;DHT22;10303;51.960;8.372;2023-03-16T19:30:42;11.30;91.70
20288;DHT22;10303;51.960;8.372;2023-03-16T19:33:20;11.40;91.40
20288;DHT22;10303;51.960;8.372;2023-03-16T19:35:56;11.40;91.60
20288;DHT22;10303;51.960;8.372;2023-03-16T19:46:51;11.30;91.60
20288;DHT22;10303;51.960;8.372;2023-03-16T20:13:18;11.10;92.40
20288;DHT22;10303;51.960;8.372;2023-03-16T20:46:28;10.90;92.80
20288;DHT22;10303;51.960;8.372;2023-03-16T20:52:40;10.90;92.90
20288;DHT22;10303;51.960;8.372;2023-03-16T20:55:33;10.90;93.30
20288;DHT22;10303;51.960;8.372;2023-03-16T20:58:27;10.90;93.20
20288;DHT22;10303;51.960;8.372;2023-03-16T21:07:50;10.90;93.10
20288;DHT22;10303;51.960;8.372;2023-03-16T21:11:07;10.90;93.30
20288;DHT22;10303;51.960;8.372;2023-03-16T21:14:24;10.80;93.20
20288;DHT22;10303;51.960;8.372;2023-03-16T21:18:03;10.90;93.40
20288;DHT22;10303;51.960;8.372;2023-03-16T21:21:00;10.90;93.50
20288;DHT22;10303;51.960;8.372;2023-03-16T21:24:09;10.90;93.50
20288;DHT22;10303;51.960;8.372;2023-03-16T21:26:36;10.90;93.40
20288;DHT22;10303;51.960;8.372;2023-03-16T21:29:10;11.00;93.40
20288;DHT22;10303;51.960;8.372;2023-03-16T22:07:14;10.40;94.10
20288;DHT22;10303;51.960;8.372;2023-03-16T22:44:31;10.80;94.50
20288;DHT22;10303;51.960;8.372;2023-03-16T23:48:56;10.60;94.60
20288;DHT22;10303;51.960;8.372;2023-03-16T23:51:57;10.10;94.90
20288;DHT22;10303;51.960;8.372;2023-03-16T23:54:55;10.70;94.70
20288;DHT22;10303;51.960;8.372;2023-03-16T23:57:42;10.20;94.50
